createdAt,value
2022-11-25T00:02:54.225Z,23.97
2022-11-25T00:08:00.299Z,24.40
2022-11-25T00:13:01.992Z,26.60
2022-11-25T00:18:04.623Z,24.17
2022-11-25T00:23:11.116Z,25.07
2022-11-25T00:28:12.786Z,22.90
2022-11-25T00:33:14.689Z,24.47
2022-11-25T00:38:18.925Z,24.10
2022-11-25T00:43:39.020Z,22.73
2022-11-25T00:48:42.934Z,22.67
2022-11-25T00:53:47.638Z,21.87
2022-11-25T00:58:59.078Z,23.90
2022-11-25T01:04:03.843Z,20.90
2022-11-25T01:09:12.235Z,21.50
2022-11-25T01:14:16.200Z,20.60
2022-11-25T01:19:19.036Z,18.03
2022-11-25T01:24:20.726Z,17.63
2022-11-25T01:29:23.318Z,17.40
2022-11-25T01:34:34.657Z,16.23
2022-11-25T01:39:39.782Z,17.03
2022-11-25T01:44:44.008Z,16.17
2022-11-25T01:49:55.101Z,16.87
2022-11-25T01:54:59.703Z,15.67
2022-11-25T02:00:04.084Z,14.93
2022-11-25T02:05:13.842Z,14.40
2022-11-25T02:10:29.985Z,13.47
2022-11-25T02:15:39.376Z,12.20
2022-11-25T02:20:43.457Z,11.23
2022-11-25T02:25:48.229Z,11.07
2022-11-25T02:30:55.043Z,10.40
2022-11-25T02:35:58.958Z,9.23
2022-11-25T02:41:04.855Z,9.57
2022-11-25T02:46:16.179Z,9.40
2022-11-25T02:51:24.455Z,8.93
2022-11-25T02:56:30.065Z,8.67
2022-11-25T03:01:33.274Z,8.70
2022-11-25T03:06:35.058Z,7.57
2022-11-25T03:11:55.318Z,8.23
2022-11-25T03:16:57.234Z,7.27
2022-11-25T03:22:03.384Z,6.43
2022-11-25T03:27:07.383Z,7.40
2022-11-25T03:32:11.504Z,7.45
2022-11-25T03:37:14.729Z,5.53
2022-11-25T03:42:19.379Z,5.93
2022-11-25T03:47:24.470Z,5.93
2022-11-25T03:52:28.880Z,5.90
2022-11-25T03:57:31.895Z,5.50
2022-11-25T04:02:36.305Z,4.80
2022-11-25T04:07:44.888Z,5.90
2022-11-25T04:12:49.406Z,5.30
2022-11-25T04:18:00.056Z,5.87
2022-11-25T04:23:06.194Z,5.33
2022-11-25T04:28:11.020Z,5.73
2022-11-25T04:33:12.914Z,6.07
2022-11-25T04:38:14.921Z,6.17
2022-11-25T04:43:17.392Z,5.57
2022-11-25T04:48:29.918Z,5.23
2022-11-25T04:53:34.553Z,6.03
2022-11-25T04:58:54.942Z,6.63
2022-11-25T05:03:59.036Z,7.05
2022-11-25T05:09:04.691Z,5.63
2022-11-25T05:14:09.523Z,5.40
2022-11-25T05:19:19.023Z,5.23
2022-11-25T05:24:24.935Z,5.73
2022-11-25T05:29:32.493Z,4.90
2022-11-25T05:34:37.256Z,4.70
2022-11-25T05:39:39.463Z,5.80
2022-11-25T05:45:01.935Z,4.70
2022-11-25T05:50:05.533Z,4.23
2022-11-25T05:55:08.202Z,5.73
2022-11-25T06:00:10.558Z,5.43
2022-11-25T06:05:20.777Z,5.57
2022-11-25T06:10:22.581Z,4.80
2022-11-25T06:15:25.435Z,5.17
2022-11-25T06:20:31.459Z,5.53
2022-11-25T06:25:36.488Z,5.47
2022-11-25T06:30:38.458Z,6.23
2022-11-25T06:36:17.181Z,5.03
2022-11-25T06:41:23.548Z,5.60
2022-11-25T06:46:25.721Z,5.47
2022-11-25T06:51:29.798Z,5.40
2022-11-25T06:56:33.809Z,6.20
2022-11-25T07:01:38.387Z,6.40
2022-11-25T07:06:40.178Z,5.77
2022-11-25T07:11:44.340Z,5.80
2022-11-25T07:16:48.304Z,6.53
2022-11-25T07:21:49.998Z,6.27
2022-11-25T07:26:53.882Z,7.37
2022-11-25T07:32:03.328Z,7.07
2022-11-25T07:37:09.643Z,7.27
2022-11-25T07:42:13.941Z,6.03
2022-11-25T07:47:18.674Z,6.67
2022-11-25T07:52:22.661Z,6.97
2022-11-25T07:57:26.420Z,7.50
2022-11-25T08:02:31.501Z,7.43
2022-11-25T08:07:36.469Z,7.40
2022-11-25T08:12:41.190Z,7.20
2022-11-25T08:17:42.912Z,8.17
2022-11-25T08:22:44.654Z,8.30
2022-11-25T08:27:48.475Z,8.80
2022-11-25T08:33:01.245Z,9.40
2022-11-25T08:38:08.937Z,9.13
2022-11-25T08:43:16.222Z,9.77
2022-11-25T08:48:21.943Z,9.43
2022-11-25T08:53:24.764Z,9.30
2022-11-25T08:58:31.379Z,9.07
2022-11-25T09:03:43.216Z,10.30
2022-11-25T09:08:48.898Z,8.93
2022-11-25T09:13:52.415Z,10.33
2022-11-25T09:19:01.105Z,9.53
2022-11-25T09:24:05.803Z,9.03
2022-11-25T09:29:10.755Z,10.27
2022-11-25T09:34:12.615Z,10.27
2022-11-25T09:39:16.234Z,10.13
2022-11-25T09:44:50.269Z,11.30
2022-11-25T09:50:04.582Z,9.80
2022-11-25T09:55:06.633Z,11.37
2022-11-25T10:00:14.179Z,11.17
2022-11-25T10:05:20.601Z,9.67
2022-11-25T10:10:28.768Z,10.33
2022-11-25T10:15:35.893Z,10.83
2022-11-25T10:20:39.374Z,11.50
2022-11-25T10:25:51.831Z,11.87
2022-11-25T10:31:18.634Z,10.97
2022-11-25T10:36:33.745Z,11.73
2022-11-25T10:41:47.943Z,11.93
2022-11-25T10:47:21.231Z,11.23
2022-11-25T10:52:29.605Z,11.83
2022-11-25T10:57:35.700Z,10.67
2022-11-25T11:02:39.819Z,10.63
2022-11-25T11:07:46.783Z,10.87
2022-11-25T11:13:03.084Z,9.87
2022-11-25T11:18:24.855Z,9.83
2022-11-25T11:23:31.236Z,10.70
2022-11-25T11:28:37.211Z,12.77
2022-11-25T11:33:57.633Z,10.13
2022-11-25T11:39:21.615Z,11.30
2022-11-25T11:45:02.881Z,12.60
2022-11-25T11:50:26.628Z,12.67
2022-11-25T11:55:43.317Z,12.53
2022-11-25T12:01:29.436Z,10.03
2022-11-25T12:06:33.824Z,10.13
2022-11-25T12:11:40.641Z,9.37
2022-11-25T12:16:51.656Z,10.03
2022-11-25T12:22:02.649Z,8.93
2022-11-25T12:27:14.452Z,7.10
2022-11-25T12:32:28.104Z,7.13
2022-11-25T12:37:58.811Z,6.43
2022-11-25T12:43:37.410Z,6.43
2022-11-25T12:48:41.999Z,6.80
2022-11-25T12:54:00.250Z,6.13
2022-11-25T12:59:31.645Z,7.00
2022-11-25T13:10:47.729Z,6.47
2022-11-25T13:10:55.759Z,6.78
2022-11-25T13:15:52.786Z,6.40
2022-11-25T13:20:56.038Z,6.53
2022-11-25T13:26:28.456Z,6.22
2022-11-25T13:32:00.787Z,5.38
2022-11-25T13:37:41.510Z,5.82
2022-11-25T13:42:48.288Z,5.28
2022-11-25T13:47:51.480Z,5.65
2022-11-25T13:53:31.948Z,5.40
2022-11-25T13:58:48.187Z,5.78
2022-11-25T14:03:55.747Z,5.57
2022-11-25T14:09:20.253Z,8.50
2022-11-25T14:14:59.804Z,10.00
2022-11-25T14:20:34.591Z,7.00
2022-11-25T14:26:11.740Z,7.10
2022-11-25T14:31:36.182Z,6.35
2022-11-25T14:36:55.239Z,6.13
2022-11-25T14:42:04.171Z,7.10
2022-11-25T14:47:11.430Z,6.50
2022-11-25T14:52:27.540Z,6.90
2022-11-25T14:57:34.788Z,6.63
2022-11-25T15:02:41.051Z,6.10
2022-11-25T15:07:56.954Z,6.80
2022-11-25T15:13:13.800Z,6.93
2022-11-25T15:18:26.220Z,5.73
2022-11-25T15:23:31.973Z,6.63
2022-11-25T15:28:40.326Z,6.70
2022-11-25T15:33:42.923Z,6.93
2022-11-25T15:38:48.383Z,8.53
2022-11-25T15:43:56.570Z,8.90
2022-11-25T15:49:01.484Z,9.20
2022-11-25T15:54:17.856Z,8.53
2022-11-25T15:59:39.234Z,9.07
2022-11-25T16:04:40.963Z,8.77
2022-11-25T16:09:51.082Z,11.43
2022-11-25T16:14:52.877Z,8.47
2022-11-25T16:19:56.992Z,7.87
2022-11-25T16:25:02.931Z,6.77
2022-11-25T16:30:05.506Z,7.47
2022-11-25T16:35:15.673Z,7.17
2022-11-25T16:40:20.586Z,8.07
2022-11-25T16:45:24.734Z,7.57
2022-11-25T16:50:28.880Z,5.70
2022-11-25T16:55:32.954Z,5.10
2022-11-25T17:00:34.955Z,6.03
2022-11-25T17:05:36.788Z,6.60
2022-11-25T17:10:41.633Z,7.10
2022-11-25T17:15:46.087Z,6.87
2022-11-25T17:20:50.474Z,7.57
2022-11-25T17:25:55.687Z,6.53
2022-11-25T17:31:03.264Z,5.83
2022-11-25T17:36:05.400Z,6.37
2022-11-25T17:41:13.406Z,5.80
2022-11-25T17:46:19.930Z,6.30
2022-11-25T17:51:21.777Z,6.17
2022-11-25T17:56:28.578Z,6.10
2022-11-25T18:01:31.102Z,7.40
2022-11-25T18:06:32.944Z,7.33
2022-11-25T18:11:34.676Z,5.90
2022-11-25T18:16:42.601Z,6.23
2022-11-25T18:21:46.911Z,6.57
2022-11-25T18:26:50.007Z,6.60
2022-11-25T18:31:56.522Z,6.67
2022-11-25T18:37:01.010Z,7.53
2022-11-25T18:42:07.940Z,7.07
2022-11-25T18:47:12.950Z,6.37
2022-11-25T18:52:20.615Z,8.80
2022-11-25T18:57:25.482Z,8.43
2022-11-25T19:02:28.651Z,8.70
2022-11-25T19:07:31.633Z,9.03
2022-11-25T19:12:36.856Z,9.30
2022-11-25T19:17:38.886Z,8.50
2022-11-25T19:22:40.610Z,9.50
2022-11-25T19:28:02.566Z,10.90
2022-11-25T19:33:04.369Z,11.63
2022-11-25T19:38:21.483Z,10.80
2022-11-25T19:43:27.145Z,10.10
2022-11-25T19:48:36.337Z,12.00
2022-11-25T19:53:40.549Z,12.87
2022-11-25T19:58:42.338Z,14.27
2022-11-25T20:03:50.092Z,14.67
2022-11-25T20:08:57.339Z,12.47
2022-11-25T20:14:01.527Z,13.63
2022-11-25T20:19:07.036Z,11.30
2022-11-25T20:24:15.737Z,15.33
2022-11-25T20:29:25.872Z,11.67
2022-11-25T20:34:40.422Z,15.13
2022-11-25T20:39:44.959Z,16.00
2022-11-25T20:44:47.065Z,15.33
2022-11-25T20:49:48.850Z,25.13
2022-11-25T20:54:55.202Z,27.23
2022-11-25T21:00:01.861Z,24.40
2022-11-25T21:05:11.601Z,19.43
2022-11-25T21:10:25.061Z,21.30
2022-11-25T21:15:29.524Z,31.47
2022-11-25T21:20:32.037Z,20.87
2022-11-25T21:25:35.255Z,19.00
2022-11-25T21:30:39.847Z,18.60
2022-11-25T21:35:44.608Z,17.53
2022-11-25T21:40:49.361Z,22.27
2022-11-25T21:46:01.504Z,25.90
2022-11-25T21:51:11.585Z,22.93
2022-11-25T21:56:30.293Z,25.60
2022-11-25T22:01:40.263Z,22.20
2022-11-25T22:06:46.985Z,20.10
2022-11-25T22:11:53.101Z,19.37
2022-11-25T22:16:57.147Z,14.90
2022-11-25T22:22:01.597Z,14.83
2022-11-25T22:27:07.293Z,17.93
2022-11-25T22:32:16.070Z,17.33
2022-11-25T22:37:22.353Z,17.47
2022-11-25T22:42:29.615Z,19.63
2022-11-25T22:47:48.686Z,21.80
2022-11-25T22:52:51.041Z,21.77
2022-11-25T22:57:59.116Z,18.13
2022-11-25T23:03:02.404Z,15.87
2022-11-25T23:08:13.744Z,21.10
2022-11-25T23:13:17.240Z,15.50
2022-11-25T23:18:34.082Z,18.53
2022-11-25T23:23:42.004Z,21.67
2022-11-25T23:28:48.342Z,21.30
2022-11-25T23:33:53.351Z,16.17
2022-11-25T23:39:00.213Z,15.03
2022-11-25T23:44:15.304Z,13.73
2022-11-25T23:49:44.478Z,16.70
2022-11-25T23:54:52.292Z,15.40
2022-11-25T23:59:56.145Z,15.60
